Thousand Oaks, California
Current Conditions -  °F | °C
As of 12:55 PM on Sunday 23 Nov 2014 (Local Time) from KCMA Reporting Station
Clear Clear  
Wind Chill: 80°   Ceiling: Unl
Heat Index: 80°   Visibility: 10mi
Dew Point: 23°   Wind: 17mph
Humidity: 12%   Direction: 60°ENE
Pressure: 30.12"   Gusts: 25mph
Location:  34.19°N, 118.89°W
Report Text: KCMA 232055Z 06015G22KT 10SM CLR 27/M05 A3012 RMK AO2 PK WND 07026/2029 SLP206 T02671050 56019
Loading
Personal Weather Stations






























Interactive Weather Map New forecast layout! Learn more

10-Day Weather Forecast

Advertisements
Track Severe Weather on mobile